sensor_id;sensor_type;location;lat;lon;timestamp;temperature;humidity
52127;DHT22;38120;53.176;6.614;2022-08-25T00:01:28;20.10;99.90
52127;DHT22;38120;53.176;6.614;2022-08-25T00:03:58;20.10;99.90
52127;DHT22;38120;53.176;6.614;2022-08-25T00:06:24;20.10;99.90
52127;DHT22;38120;53.176;6.614;2022-08-25T00:08:50;20.20;99.90
52127;DHT22;38120;53.176;6.614;2022-08-25T00:11:22;20.30;99.90
52127;DHT22;38120;53.176;6.614;2022-08-25T00:13:52;20.40;99.90
52127;DHT22;38120;53.176;6.614;2022-08-25T00:16:20;20.50;99.90
52127;DHT22;38120;53.176;6.614;2022-08-25T00:18:51;20.50;99.90
52127;DHT22;38120;53.176;6.614;2022-08-25T00:21:17;20.50;99.90
52127;DHT22;38120;53.176;6.614;2022-08-25T00:23:43;20.50;99.90
52127;DHT22;38120;53.176;6.614;2022-08-25T00:26:11;20.50;99.90
52127;DHT22;38120;53.176;6.614;2022-08-25T00:28:37;20.60;99.90
52127;DHT22;38120;53.176;6.614;2022-08-25T00:31:05;20.50;99.90
52127;DHT22;38120;53.176;6.614;2022-08-25T00:33:32;20.50;99.90
52127;DHT22;38120;53.176;6.614;2022-08-25T00:35:59;20.60;99.90
52127;DHT22;38120;53.176;6.614;2022-08-25T00:38:25;20.60;99.90
52127;DHT22;38120;53.176;6.614;2022-08-25T00:40:52;20.60;99.90
52127;DHT22;38120;53.176;6.614;2022-08-25T00:46:13;20.60;99.90
52127;DHT22;38120;53.176;6.614;2022-08-25T00:48:41;20.60;99.90
52127;DHT22;38120;53.176;6.614;2022-08-25T00:51:10;20.60;99.90
52127;DHT22;38120;53.176;6.614;2022-08-25T00:53:38;20.60;99.90
52127;DHT22;38120;53.176;6.614;2022-08-25T00:56:05;20.50;99.90
52127;DHT22;38120;53.176;6.614;2022-08-25T00:58:33;20.60;99.90
52127;DHT22;38120;53.176;6.614;2022-08-25T01:00:59;20.60;99.90
52127;DHT22;38120;53.176;6.614;2022-08-25T01:03:27;20.50;99.90
52127;DHT22;38120;53.176;6.614;2022-08-25T01:05:53;20.60;99.90
52127;DHT22;38120;53.176;6.614;2022-08-25T01:08:23;20.50;99.90
52127;DHT22;38120;53.176;6.614;2022-08-25T01:10:52;20.50;99.90
52127;DHT22;38120;53.176;6.614;2022-08-25T01:13:19;20.50;99.90
52127;DHT22;38120;53.176;6.614;2022-08-25T01:15:47;20.50;99.90
52127;DHT22;38120;53.176;6.614;2022-08-25T01:18:14;20.40;99.90
52127;DHT22;38120;53.176;6.614;2022-08-25T01:20:40;20.50;99.90
52127;DHT22;38120;53.176;6.614;2022-08-25T01:23:06;20.40;99.90
52127;DHT22;38120;53.176;6.614;2022-08-25T01:25:52;20.40;99.90
52127;DHT22;38120;53.176;6.614;2022-08-25T01:28:21;20.40;99.90
52127;DHT22;38120;53.176;6.614;2022-08-25T01:30:47;20.30;99.90
52127;DHT22;38120;53.176;6.614;2022-08-25T01:33:13;20.30;99.90
52127;DHT22;38120;53.176;6.614;2022-08-25T01:35:40;20.30;99.90
52127;DHT22;38120;53.176;6.614;2022-08-25T01:38:07;20.30;99.90
52127;DHT22;38120;53.176;6.614;2022-08-25T01:40:34;20.30;99.90
52127;DHT22;38120;53.176;6.614;2022-08-25T01:45:44;20.30;99.90
52127;DHT22;38120;53.176;6.614;2022-08-25T01:48:11;20.30;99.90
52127;DHT22;38120;53.176;6.614;2022-08-25T01:50:37;20.30;99.90
52127;DHT22;38120;53.176;6.614;2022-08-25T01:53:13;20.30;99.90
52127;DHT22;38120;53.176;6.614;2022-08-25T01:55:42;20.30;99.90
52127;DHT22;38120;53.176;6.614;2022-08-25T01:58:32;20.20;99.90
52127;DHT22;38120;53.176;6.614;2022-08-25T02:01:02;20.20;99.90
52127;DHT22;38120;53.176;6.614;2022-08-25T02:03:29;20.20;99.90
52127;DHT22;38120;53.176;6.614;2022-08-25T02:05:57;20.20;99.90
52127;DHT22;38120;53.176;6.614;2022-08-25T02:08:24;20.10;99.90
52127;DHT22;38120;53.176;6.614;2022-08-25T02:10:51;20.10;99.90
52127;DHT22;38120;53.176;6.614;2022-08-25T02:13:18;20.10;99.90
52127;DHT22;38120;53.176;6.614;2022-08-25T02:15:48;20.10;99.90
52127;DHT22;38120;53.176;6.614;2022-08-25T02:18:15;20.10;99.90
52127;DHT22;38120;53.176;6.614;2022-08-25T02:20:41;20.10;99.90
52127;DHT22;38120;53.176;6.614;2022-08-25T02:23:07;20.10;99.90
52127;DHT22;38120;53.176;6.614;2022-08-25T02:25:33;20.00;99.90
52127;DHT22;38120;53.176;6.614;2022-08-25T02:27:59;20.10;99.90
52127;DHT22;38120;53.176;6.614;2022-08-25T02:30:25;20.00;99.90
52127;DHT22;38120;53.176;6.614;2022-08-25T02:32:51;20.00;99.90
52127;DHT22;38120;53.176;6.614;2022-08-25T02:35:17;20.10;99.90
52127;DHT22;38120;53.176;6.614;2022-08-25T02:37:43;20.00;99.90
52127;DHT22;38120;53.176;6.614;2022-08-25T02:40:09;20.10;99.90
52127;DHT22;38120;53.176;6.614;2022-08-25T02:42:35;20.00;99.90
52127;DHT22;38120;53.176;6.614;2022-08-25T02:45:01;20.00;99.90
52127;DHT22;38120;53.176;6.614;2022-08-25T02:47:27;20.00;99.90
52127;DHT22;38120;53.176;6.614;2022-08-25T02:49:52;19.90;99.90
52127;DHT22;38120;53.176;6.614;2022-08-25T02:52:19;19.90;99.90
52127;DHT22;38120;53.176;6.614;2022-08-25T02:54:44;19.90;99.90
52127;DHT22;38120;53.176;6.614;2022-08-25T02:57:10;19.90;99.90
52127;DHT22;38120;53.176;6.614;2022-08-25T02:59:40;19.90;99.90
52127;DHT22;38120;53.176;6.614;2022-08-25T03:02:06;19.90;99.90
52127;DHT22;38120;53.176;6.614;2022-08-25T03:04:32;19.90;99.90
52127;DHT22;38120;53.176;6.614;2022-08-25T03:06:58;19.90;99.90
52127;DHT22;38120;53.176;6.614;2022-08-25T03:09:25;19.80;99.90
52127;DHT22;38120;53.176;6.614;2022-08-25T03:11:51;19.90;99.90
52127;DHT22;38120;53.176;6.614;2022-08-25T03:14:16;19.80;99.90
52127;DHT22;38120;53.176;6.614;2022-08-25T03:16:42;19.80;99.90
52127;DHT22;38120;53.176;6.614;2022-08-25T03:19:09;19.80;99.90
52127;DHT22;38120;53.176;6.614;2022-08-25T03:21:36;19.70;99.90
52127;DHT22;38120;53.176;6.614;2022-08-25T03:24:03;19.70;99.90
52127;DHT22;38120;53.176;6.614;2022-08-25T03:26:29;19.60;99.90
52127;DHT22;38120;53.176;6.614;2022-08-25T03:29:13;19.60;99.90
52127;DHT22;38120;53.176;6.614;2022-08-25T03:31:40;19.60;99.90
52127;DHT22;38120;53.176;6.614;2022-08-25T03:34:08;19.50;99.90
52127;DHT22;38120;53.176;6.614;2022-08-25T03:36:34;19.60;99.90
52127;DHT22;38120;53.176;6.614;2022-08-25T03:38:59;19.50;99.90
52127;DHT22;38120;53.176;6.614;2022-08-25T03:41:27;19.40;99.90
52127;DHT22;38120;53.176;6.614;2022-08-25T03:43:54;19.40;99.90
52127;DHT22;38120;53.176;6.614;2022-08-25T03:46:25;19.40;99.90
52127;DHT22;38120;53.176;6.614;2022-08-25T03:48:52;19.40;99.90
52127;DHT22;38120;53.176;6.614;2022-08-25T03:51:22;19.30;99.90
52127;DHT22;38120;53.176;6.614;2022-08-25T03:53:48;19.30;99.90
52127;DHT22;38120;53.176;6.614;2022-08-25T03:56:14;19.30;99.90
52127;DHT22;38120;53.176;6.614;2022-08-25T03:58:40;19.30;99.90
52127;DHT22;38120;53.176;6.614;2022-08-25T04:01:05;19.30;99.90
52127;DHT22;38120;53.176;6.614;2022-08-25T04:03:31;19.30;99.90
52127;DHT22;38120;53.176;6.614;2022-08-25T04:06:00;19.30;99.90
52127;DHT22;38120;53.176;6.614;2022-08-25T04:08:26;19.30;99.90
52127;DHT22;38120;53.176;6.614;2022-08-25T04:10:52;19.30;99.90
52127;DHT22;38120;53.176;6.614;2022-08-25T04:13:20;19.30;99.90
52127;DHT22;38120;53.176;6.614;2022-08-25T04:15:45;19.30;99.90
52127;DHT22;38120;53.176;6.614;2022-08-25T04:18:11;19.20;99.90
52127;DHT22;38120;53.176;6.614;2022-08-25T04:20:38;19.20;99.90
52127;DHT22;38120;53.176;6.614;2022-08-25T04:23:04;19.20;99.90
52127;DHT22;38120;53.176;6.614;2022-08-25T04:25:30;19.20;99.90
52127;DHT22;38120;53.176;6.614;2022-08-25T04:27:56;19.20;99.90
52127;DHT22;38120;53.176;6.614;2022-08-25T04:30:22;19.20;99.90
52127;DHT22;38120;53.176;6.614;2022-08-25T04:32:48;19.20;99.90
52127;DHT22;38120;53.176;6.614;2022-08-25T04:35:14;19.20;99.90
52127;DHT22;38120;53.176;6.614;2022-08-25T04:37:40;19.10;99.90
52127;DHT22;38120;53.176;6.614;2022-08-25T04:40:06;19.10;99.90
52127;DHT22;38120;53.176;6.614;2022-08-25T04:42:33;19.20;99.90
52127;DHT22;38120;53.176;6.614;2022-08-25T04:44:59;19.10;99.90
52127;DHT22;38120;53.176;6.614;2022-08-25T04:47:26;19.10;99.90
52127;DHT22;38120;53.176;6.614;2022-08-25T04:49:52;19.10;99.90
52127;DHT22;38120;53.176;6.614;2022-08-25T04:52:18;19.10;99.90
52127;DHT22;38120;53.176;6.614;2022-08-25T04:54:45;19.10;99.90
52127;DHT22;38120;53.176;6.614;2022-08-25T04:57:11;19.10;99.90
52127;DHT22;38120;53.176;6.614;2022-08-25T04:59:37;19.10;99.90
52127;DHT22;38120;53.176;6.614;2022-08-25T05:02:03;19.10;99.90
52127;DHT22;38120;53.176;6.614;2022-08-25T05:04:33;19.00;99.90
52127;DHT22;38120;53.176;6.614;2022-08-25T05:06:59;19.10;99.90
52127;DHT22;38120;53.176;6.614;2022-08-25T05:09:25;19.10;99.90
52127;DHT22;38120;53.176;6.614;2022-08-25T05:11:52;19.10;99.90
52127;DHT22;38120;53.176;6.614;2022-08-25T05:14:17;19.10;99.90
52127;DHT22;38120;53.176;6.614;2022-08-25T05:16:47;19.10;99.90
52127;DHT22;38120;53.176;6.614;2022-08-25T05:19:13;19.00;99.90
52127;DHT22;38120;53.176;6.614;2022-08-25T05:21:39;19.10;99.90
52127;DHT22;38120;53.176;6.614;2022-08-25T05:24:06;19.10;99.90
52127;DHT22;38120;53.176;6.614;2022-08-25T05:26:33;19.10;99.90
52127;DHT22;38120;53.176;6.614;2022-08-25T05:29:00;19.10;99.90
52127;DHT22;38120;53.176;6.614;2022-08-25T05:31:28;19.10;99.90
52127;DHT22;38120;53.176;6.614;2022-08-25T05:33:54;19.20;99.90
52127;DHT22;38120;53.176;6.614;2022-08-25T05:36:22;19.20;99.90
52127;DHT22;38120;53.176;6.614;2022-08-25T05:38:48;19.20;99.90
52127;DHT22;38120;53.176;6.614;2022-08-25T05:41:17;19.30;99.90
52127;DHT22;38120;53.176;6.614;2022-08-25T05:43:45;19.30;99.90
52127;DHT22;38120;53.176;6.614;2022-08-25T05:46:12;19.40;99.90
52127;DHT22;38120;53.176;6.614;2022-08-25T05:48:38;19.40;99.90
52127;DHT22;38120;53.176;6.614;2022-08-25T05:51:06;19.40;99.90
52127;DHT22;38120;53.176;6.614;2022-08-25T05:53:35;19.50;99.90
52127;DHT22;38120;53.176;6.614;2022-08-25T05:56:00;19.50;99.90
52127;DHT22;38120;53.176;6.614;2022-08-25T05:58:28;19.50;99.90
52127;DHT22;38120;53.176;6.614;2022-08-25T06:00:55;19.60;99.90
52127;DHT22;38120;53.176;6.614;2022-08-25T06:03:22;19.60;99.90
52127;DHT22;38120;53.176;6.614;2022-08-25T06:05:47;19.70;99.90
52127;DHT22;38120;53.176;6.614;2022-08-25T06:08:14;19.80;99.90
52127;DHT22;38120;53.176;6.614;2022-08-25T06:10:41;19.80;99.90
52127;DHT22;38120;53.176;6.614;2022-08-25T06:13:06;19.90;99.90
52127;DHT22;38120;53.176;6.614;2022-08-25T06:15:32;19.90;99.90
52127;DHT22;38120;53.176;6.614;2022-08-25T06:17:59;20.00;99.90
52127;DHT22;38120;53.176;6.614;2022-08-25T06:20:29;20.10;99.90
52127;DHT22;38120;53.176;6.614;2022-08-25T06:22:56;20.20;99.90
52127;DHT22;38120;53.176;6.614;2022-08-25T06:25:24;20.20;99.90
52127;DHT22;38120;53.176;6.614;2022-08-25T06:27:50;20.30;99.90
52127;DHT22;38120;53.176;6.614;2022-08-25T06:30:19;20.30;99.90
52127;DHT22;38120;53.176;6.614;2022-08-25T06:32:45;20.40;99.90
52127;DHT22;38120;53.176;6.614;2022-08-25T06:35:15;20.40;99.90
52127;DHT22;38120;53.176;6.614;2022-08-25T06:37:42;20.50;99.90
52127;DHT22;38120;53.176;6.614;2022-08-25T06:40:09;20.60;99.90
52127;DHT22;38120;53.176;6.614;2022-08-25T06:42:35;20.70;99.90
52127;DHT22;38120;53.176;6.614;2022-08-25T06:45:02;20.70;99.90
52127;DHT22;38120;53.176;6.614;2022-08-25T06:47:27;20.90;99.90
52127;DHT22;38120;53.176;6.614;2022-08-25T06:49:56;20.90;99.90
52127;DHT22;38120;53.176;6.614;2022-08-25T06:52:22;21.00;99.90
52127;DHT22;38120;53.176;6.614;2022-08-25T06:54:48;21.10;99.90
52127;DHT22;38120;53.176;6.614;2022-08-25T06:57:14;21.30;99.90
52127;DHT22;38120;53.176;6.614;2022-08-25T06:59:40;21.30;99.90
52127;DHT22;38120;53.176;6.614;2022-08-25T07:02:06;21.40;99.90
52127;DHT22;38120;53.176;6.614;2022-08-25T07:04:34;21.50;99.90
52127;DHT22;38120;53.176;6.614;2022-08-25T07:07:00;21.60;99.90
52127;DHT22;38120;53.176;6.614;2022-08-25T07:09:25;21.70;99.90
52127;DHT22;38120;53.176;6.614;2022-08-25T07:11:51;21.70;99.90
52127;DHT22;38120;53.176;6.614;2022-08-25T07:14:18;21.90;99.90
52127;DHT22;38120;53.176;6.614;2022-08-25T07:16:45;22.00;99.90
52127;DHT22;38120;53.176;6.614;2022-08-25T07:19:11;22.10;99.90
52127;DHT22;38120;53.176;6.614;2022-08-25T07:21:38;22.10;99.90
52127;DHT22;38120;53.176;6.614;2022-08-25T07:24:07;22.20;99.90
52127;DHT22;38120;53.176;6.614;2022-08-25T07:26:34;22.30;99.90
52127;DHT22;38120;53.176;6.614;2022-08-25T07:29:22;22.40;99.90
52127;DHT22;38120;53.176;6.614;2022-08-25T07:31:47;22.50;99.90
52127;DHT22;38120;53.176;6.614;2022-08-25T07:34:13;22.60;99.90
52127;DHT22;38120;53.176;6.614;2022-08-25T07:36:57;22.70;99.90
52127;DHT22;38120;53.176;6.614;2022-08-25T07:39:24;22.80;99.90
52127;DHT22;38120;53.176;6.614;2022-08-25T07:41:51;22.90;99.90
52127;DHT22;38120;53.176;6.614;2022-08-25T07:44:17;23.00;99.90
52127;DHT22;38120;53.176;6.614;2022-08-25T07:46:43;23.20;99.90
52127;DHT22;38120;53.176;6.614;2022-08-25T07:49:09;23.30;99.90
52127;DHT22;38120;53.176;6.614;2022-08-25T07:51:34;23.30;99.90
52127;DHT22;38120;53.176;6.614;2022-08-25T07:54:00;23.40;99.90
52127;DHT22;38120;53.176;6.614;2022-08-25T07:56:26;23.50;99.90
52127;DHT22;38120;53.176;6.614;2022-08-25T07:58:52;23.60;99.90
52127;DHT22;38120;53.176;6.614;2022-08-25T08:01:22;23.70;99.90
52127;DHT22;38120;53.176;6.614;2022-08-25T08:03:48;23.90;99.90
52127;DHT22;38120;53.176;6.614;2022-08-25T08:06:17;24.00;99.90
52127;DHT22;38120;53.176;6.614;2022-08-25T08:08:45;24.00;99.90
52127;DHT22;38120;53.176;6.614;2022-08-25T08:11:19;24.10;99.90
52127;DHT22;38120;53.176;6.614;2022-08-25T08:13:46;24.20;99.90
52127;DHT22;38120;53.176;6.614;2022-08-25T08:16:14;24.30;99.90
52127;DHT22;38120;53.176;6.614;2022-08-25T08:18:41;24.40;99.90
52127;DHT22;38120;53.176;6.614;2022-08-25T08:21:16;24.50;99.90
52127;DHT22;38120;53.176;6.614;2022-08-25T08:23:42;24.60;99.90
52127;DHT22;38120;53.176;6.614;2022-08-25T08:26:08;24.70;99.90
52127;DHT22;38120;53.176;6.614;2022-08-25T08:28:34;24.70;99.90
52127;DHT22;38120;53.176;6.614;2022-08-25T08:31:00;24.90;99.90
52127;DHT22;38120;53.176;6.614;2022-08-25T08:33:26;25.00;99.90
52127;DHT22;38120;53.176;6.614;2022-08-25T08:36:08;25.10;99.90
52127;DHT22;38120;53.176;6.614;2022-08-25T08:38:36;25.20;99.90
52127;DHT22;38120;53.176;6.614;2022-08-25T08:43:52;25.30;99.90
52127;DHT22;38120;53.176;6.614;2022-08-25T08:46:20;25.50;99.90
52127;DHT22;38120;53.176;6.614;2022-08-25T08:48:59;25.70;99.90
52127;DHT22;38120;53.176;6.614;2022-08-25T08:51:32;25.80;99.90
52127;DHT22;38120;53.176;6.614;2022-08-25T08:54:12;25.90;99.90
52127;DHT22;38120;53.176;6.614;2022-08-25T08:56:41;26.00;99.90
52127;DHT22;38120;53.176;6.614;2022-08-25T08:59:16;26.10;99.90
52127;DHT22;38120;53.176;6.614;2022-08-25T09:01:50;26.10;99.90
52127;DHT22;38120;53.176;6.614;2022-08-25T09:04:39;26.20;99.90
52127;DHT22;38120;53.176;6.614;2022-08-25T09:07:25;26.30;99.90
52127;DHT22;38120;53.176;6.614;2022-08-25T09:09:55;26.20;99.90
52127;DHT22;38120;53.176;6.614;2022-08-25T09:12:36;26.30;99.90
52127;DHT22;38120;53.176;6.614;2022-08-25T09:18:25;26.50;99.90
52127;DHT22;38120;53.176;6.614;2022-08-25T09:21:02;26.60;99.90
52127;DHT22;38120;53.176;6.614;2022-08-25T09:26:34;26.70;99.90
52127;DHT22;38120;53.176;6.614;2022-08-25T09:29:17;26.70;25.30
52127;DHT22;38120;53.176;6.614;2022-08-25T09:31:47;26.80;68.20
52127;DHT22;38120;53.176;6.614;2022-08-25T09:34:22;26.90;61.10
52127;DHT22;38120;53.176;6.614;2022-08-25T09:36:48;26.90;1.00
52127;DHT22;38120;53.176;6.614;2022-08-25T09:39:17;27.10;99.90
52127;DHT22;38120;53.176;6.614;2022-08-25T09:41:56;27.20;99.90
52127;DHT22;38120;53.176;6.614;2022-08-25T09:44:46;27.40;1.00
52127;DHT22;38120;53.176;6.614;2022-08-25T09:52:39;27.60;87.80
52127;DHT22;38120;53.176;6.614;2022-08-25T09:57:37;27.80;1.00
52127;DHT22;38120;53.176;6.614;2022-08-25T10:06:12;28.20;1.00
52127;DHT22;38120;53.176;6.614;2022-08-25T10:11:13;28.40;99.90
52127;DHT22;38120;53.176;6.614;2022-08-25T10:13:41;28.50;99.90
52127;DHT22;38120;53.176;6.614;2022-08-25T10:16:24;28.50;13.90
52127;DHT22;38120;53.176;6.614;2022-08-25T10:21:35;28.80;1.00
52127;DHT22;38120;53.176;6.614;2022-08-25T10:24:01;28.90;99.90
52127;DHT22;38120;53.176;6.614;2022-08-25T10:26:36;29.00;99.90
52127;DHT22;38120;53.176;6.614;2022-08-25T10:29:35;29.00;99.90
52127;DHT22;38120;53.176;6.614;2022-08-25T10:32:33;29.00;99.90
52127;DHT22;38120;53.176;6.614;2022-08-25T10:35:04;29.00;99.90
52127;DHT22;38120;53.176;6.614;2022-08-25T10:40:26;29.20;99.90
52127;DHT22;38120;53.176;6.614;2022-08-25T10:43:32;29.30;99.90
52127;DHT22;38120;53.176;6.614;2022-08-25T10:46:15;29.40;99.90
52127;DHT22;38120;53.176;6.614;2022-08-25T10:49:04;29.40;99.90
52127;DHT22;38120;53.176;6.614;2022-08-25T10:54:33;29.50;99.90
52127;DHT22;38120;53.176;6.614;2022-08-25T10:57:11;29.50;99.90
52127;DHT22;38120;53.176;6.614;2022-08-25T11:00:08;29.60;99.90
52127;DHT22;38120;53.176;6.614;2022-08-25T11:02:59;29.60;99.90
52127;DHT22;38120;53.176;6.614;2022-08-25T11:05:32;29.60;99.90
52127;DHT22;38120;53.176;6.614;2022-08-25T11:08:05;29.70;99.90
52127;DHT22;38120;53.176;6.614;2022-08-25T11:10:39;29.80;99.90
52127;DHT22;38120;53.176;6.614;2022-08-25T11:13:57;29.90;99.90
52127;DHT22;38120;53.176;6.614;2022-08-25T11:16:05;29.90;99.90
52127;DHT22;38120;53.176;6.614;2022-08-25T11:19:07;30.00;99.90
52127;DHT22;38120;53.176;6.614;2022-08-25T11:21:52;30.00;99.90
52127;DHT22;38120;53.176;6.614;2022-08-25T11:24:34;30.00;99.90
52127;DHT22;38120;53.176;6.614;2022-08-25T11:27:04;30.00;99.90
52127;DHT22;38120;53.176;6.614;2022-08-25T11:29:33;30.10;99.90
52127;DHT22;38120;53.176;6.614;2022-08-25T11:32:01;30.30;99.90
52127;DHT22;38120;53.176;6.614;2022-08-25T11:34:34;30.40;99.90
52127;DHT22;38120;53.176;6.614;2022-08-25T11:37:06;30.30;99.90
52127;DHT22;38120;53.176;6.614;2022-08-25T11:42:48;30.50;99.90
52127;DHT22;38120;53.176;6.614;2022-08-25T11:50:35;30.50;98.30
52127;DHT22;38120;53.176;6.614;2022-08-25T11:53:42;30.60;98.60
52127;DHT22;38120;53.176;6.614;2022-08-25T11:56:31;30.70;94.80
52127;DHT22;38120;53.176;6.614;2022-08-25T11:58:56;30.60;89.20
52127;DHT22;38120;53.176;6.614;2022-08-25T12:04:32;30.80;91.80
52127;DHT22;38120;53.176;6.614;2022-08-25T12:26:28;31.10;67.50
52127;DHT22;38120;53.176;6.614;2022-08-25T12:29:37;31.10;62.50
52127;DHT22;38120;53.176;6.614;2022-08-25T12:35:25;31.10;59.80
52127;DHT22;38120;53.176;6.614;2022-08-25T12:40:37;31.30;64.60
52127;DHT22;38120;53.176;6.614;2022-08-25T12:43:30;31.50;63.00
52127;DHT22;38120;53.176;6.614;2022-08-25T12:51:48;31.60;55.30
52127;DHT22;38120;53.176;6.614;2022-08-25T12:54:17;31.50;50.40
52127;DHT22;38120;53.176;6.614;2022-08-25T12:56:48;31.50;47.00
52127;DHT22;38120;53.176;6.614;2022-08-25T13:10:23;31.80;38.10
52127;DHT22;38120;53.176;6.614;2022-08-25T13:13:07;31.80;33.00
52127;DHT22;38120;53.176;6.614;2022-08-25T13:15:42;31.90;30.70
52127;DHT22;38120;53.176;6.614;2022-08-25T13:18:27;32.00;27.30
52127;DHT22;38120;53.176;6.614;2022-08-25T13:21:19;31.80;24.80
52127;DHT22;38120;53.176;6.614;2022-08-25T13:23:51;31.80;25.70
52127;DHT22;38120;53.176;6.614;2022-08-25T13:26:41;31.80;23.70
52127;DHT22;38120;53.176;6.614;2022-08-25T13:29:22;31.90;27.20
52127;DHT22;38120;53.176;6.614;2022-08-25T13:32:04;31.70;19.30
52127;DHT22;38120;53.176;6.614;2022-08-25T13:34:33;31.70;19.40
52127;DHT22;38120;53.176;6.614;2022-08-25T13:37:22;31.80;20.60
52127;DHT22;38120;53.176;6.614;2022-08-25T13:42:42;31.90;20.60
52127;DHT22;38120;53.176;6.614;2022-08-25T13:45:13;32.00;18.90
52127;DHT22;38120;53.176;6.614;2022-08-25T13:47:40;31.90;17.80
52127;DHT22;38120;53.176;6.614;2022-08-25T13:55:37;32.10;11.00
52127;DHT22;38120;53.176;6.614;2022-08-25T13:58:05;32.20;9.80
52127;DHT22;38120;53.176;6.614;2022-08-25T14:00:48;32.10;10.30
52127;DHT22;38120;53.176;6.614;2022-08-25T14:03:36;31.90;9.00
52127;DHT22;38120;53.176;6.614;2022-08-25T14:08:42;32.10;14.00
52127;DHT22;38120;53.176;6.614;2022-08-25T14:11:13;32.10;11.20
52127;DHT22;38120;53.176;6.614;2022-08-25T14:13:43;32.10;11.30
52127;DHT22;38120;53.176;6.614;2022-08-25T14:16:28;32.30;11.50
52127;DHT22;38120;53.176;6.614;2022-08-25T14:18:58;32.20;14.40
52127;DHT22;38120;53.176;6.614;2022-08-25T14:21:29;32.20;13.70
52127;DHT22;38120;53.176;6.614;2022-08-25T14:23:56;32.40;13.00
52127;DHT22;38120;53.176;6.614;2022-08-25T14:26:22;32.30;14.90
52127;DHT22;38120;53.176;6.614;2022-08-25T14:28:48;32.40;17.10
52127;DHT22;38120;53.176;6.614;2022-08-25T14:31:30;32.30;14.80
52127;DHT22;38120;53.176;6.614;2022-08-25T14:36:49;32.00;12.50
52127;DHT22;38120;53.176;6.614;2022-08-25T14:39:15;32.10;10.80
52127;DHT22;38120;53.176;6.614;2022-08-25T14:41:42;32.00;11.80
52127;DHT22;38120;53.176;6.614;2022-08-25T14:44:09;32.10;12.60
52127;DHT22;38120;53.176;6.614;2022-08-25T14:46:42;32.00;14.30
52127;DHT22;38120;53.176;6.614;2022-08-25T14:49:11;32.00;16.30
52127;DHT22;38120;53.176;6.614;2022-08-25T14:51:40;32.00;13.80
52127;DHT22;38120;53.176;6.614;2022-08-25T14:54:10;31.90;12.30
52127;DHT22;38120;53.176;6.614;2022-08-25T14:56:38;32.10;16.90
52127;DHT22;38120;53.176;6.614;2022-08-25T14:59:03;32.00;11.90
52127;DHT22;38120;53.176;6.614;2022-08-25T15:01:29;31.90;12.50
52127;DHT22;38120;53.176;6.614;2022-08-25T15:04:11;31.80;11.70
52127;DHT22;38120;53.176;6.614;2022-08-25T15:06:38;31.80;13.80
52127;DHT22;38120;53.176;6.614;2022-08-25T15:09:07;32.00;14.80
52127;DHT22;38120;53.176;6.614;2022-08-25T15:11:40;32.00;12.50
52127;DHT22;38120;53.176;6.614;2022-08-25T15:14:06;31.90;11.50
52127;DHT22;38120;53.176;6.614;2022-08-25T15:16:36;31.90;12.40
52127;DHT22;38120;53.176;6.614;2022-08-25T15:19:11;31.70;11.50
52127;DHT22;38120;53.176;6.614;2022-08-25T15:21:39;31.90;10.10
52127;DHT22;38120;53.176;6.614;2022-08-25T15:24:06;31.80;12.40
52127;DHT22;38120;53.176;6.614;2022-08-25T15:26:44;31.80;10.70
52127;DHT22;38120;53.176;6.614;2022-08-25T15:29:11;31.70;11.70
52127;DHT22;38120;53.176;6.614;2022-08-25T15:31:37;31.80;11.30
52127;DHT22;38120;53.176;6.614;2022-08-25T15:34:05;31.80;8.80
52127;DHT22;38120;53.176;6.614;2022-08-25T15:36:32;31.80;9.80
52127;DHT22;38120;53.176;6.614;2022-08-25T15:38:58;31.80;8.90
52127;DHT22;38120;53.176;6.614;2022-08-25T15:41:23;31.80;11.60
52127;DHT22;38120;53.176;6.614;2022-08-25T15:43:49;31.90;13.80
52127;DHT22;38120;53.176;6.614;2022-08-25T15:46:18;31.70;10.70
52127;DHT22;38120;53.176;6.614;2022-08-25T15:48:45;31.60;11.20
52127;DHT22;38120;53.176;6.614;2022-08-25T15:51:10;31.80;12.90
52127;DHT22;38120;53.176;6.614;2022-08-25T15:53:37;31.60;14.60
52127;DHT22;38120;53.176;6.614;2022-08-25T15:56:06;31.60;11.20
52127;DHT22;38120;53.176;6.614;2022-08-25T15:58:33;31.60;11.40
52127;DHT22;38120;53.176;6.614;2022-08-25T16:01:00;31.70;16.30
52127;DHT22;38120;53.176;6.614;2022-08-25T16:03:26;31.60;14.50
52127;DHT22;38120;53.176;6.614;2022-08-25T16:05:52;31.60;13.30
52127;DHT22;38120;53.176;6.614;2022-08-25T16:08:18;31.60;13.20
52127;DHT22;38120;53.176;6.614;2022-08-25T16:10:44;31.40;12.20
52127;DHT22;38120;53.176;6.614;2022-08-25T16:13:10;31.40;12.20
52127;DHT22;38120;53.176;6.614;2022-08-25T16:15:37;31.50;11.40
52127;DHT22;38120;53.176;6.614;2022-08-25T16:18:03;31.70;12.30
52127;DHT22;38120;53.176;6.614;2022-08-25T16:20:31;31.90;13.10
52127;DHT22;38120;53.176;6.614;2022-08-25T16:22:57;32.00;12.30
52127;DHT22;38120;53.176;6.614;2022-08-25T16:25:25;32.40;13.00
52127;DHT22;38120;53.176;6.614;2022-08-25T16:27:52;32.60;9.40
52127;DHT22;38120;53.176;6.614;2022-08-25T16:30:18;33.00;10.60
52127;DHT22;38120;53.176;6.614;2022-08-25T16:32:44;33.30;7.40
52127;DHT22;38120;53.176;6.614;2022-08-25T16:35:11;33.30;7.10
52127;DHT22;38120;53.176;6.614;2022-08-25T16:37:38;33.20;8.10
52127;DHT22;38120;53.176;6.614;2022-08-25T16:40:05;33.00;7.00
52127;DHT22;38120;53.176;6.614;2022-08-25T16:42:30;32.40;6.40
52127;DHT22;38120;53.176;6.614;2022-08-25T16:44:56;32.00;5.40
52127;DHT22;38120;53.176;6.614;2022-08-25T16:47:22;31.60;3.80
52127;DHT22;38120;53.176;6.614;2022-08-25T16:49:47;31.30;4.80
52127;DHT22;38120;53.176;6.614;2022-08-25T16:52:13;31.00;5.90
52127;DHT22;38120;53.176;6.614;2022-08-25T16:54:58;30.70;7.10
52127;DHT22;38120;53.176;6.614;2022-08-25T16:57:42;30.50;9.00
52127;DHT22;38120;53.176;6.614;2022-08-25T17:00:10;30.20;13.50
52127;DHT22;38120;53.176;6.614;2022-08-25T17:02:40;30.10;16.70
52127;DHT22;38120;53.176;6.614;2022-08-25T17:05:08;30.00;25.10
52127;DHT22;38120;53.176;6.614;2022-08-25T17:07:34;29.90;28.70
52127;DHT22;38120;53.176;6.614;2022-08-25T17:10:01;29.70;34.10
52127;DHT22;38120;53.176;6.614;2022-08-25T17:12:27;29.60;42.70
52127;DHT22;38120;53.176;6.614;2022-08-25T17:14:52;29.60;39.60
52127;DHT22;38120;53.176;6.614;2022-08-25T17:17:18;29.60;42.40
52127;DHT22;38120;53.176;6.614;2022-08-25T17:19:44;29.40;74.70
52127;DHT22;38120;53.176;6.614;2022-08-25T17:22:10;29.30;99.90
52127;DHT22;38120;53.176;6.614;2022-08-25T17:24:46;29.20;99.90
52127;DHT22;38120;53.176;6.614;2022-08-25T17:27:12;29.10;99.90
52127;DHT22;38120;53.176;6.614;2022-08-25T17:29:37;29.10;99.90
52127;DHT22;38120;53.176;6.614;2022-08-25T17:32:04;29.00;99.90
52127;DHT22;38120;53.176;6.614;2022-08-25T17:34:30;28.90;99.90
52127;DHT22;38120;53.176;6.614;2022-08-25T17:36:57;28.80;99.90